BISG weather

Steinasandur Airport
Steinasandur, Eastern Region, Iceland

Public forecast

Using degrees Celsius for public forecast. Weather courtesy of forecast.io.

METAR (pilot weather report)

Closest report is Hornafjörður Airport, 19.2 nm (35.5 km) ENE. Retrieved 2019/06/24 19:00 UTC (2 hours ago):

BIHN 241900Z 23011KT 9999 FEW050 16/08 Q1025

TAF (pilot weather forecast)

Closest forecast is Egilsstaðir Airport, 77.2 nm (143.1 km) NNE. Retrieved 2019/06/24 15:27 UTC (5 hours ago):

TAF BIEG 241324Z 2415/2515 02012KT 9999 BKN050 TX18/2515Z TN07/2503Z BECMG 2422/2500 VRB02KT PROB30 2423/2506 5000 -DZ BR BKN005 OVC012 BECMG 2506/2509 23012KT